createdAt,value
2023-02-11T00:00:16.938Z,92.9
2023-02-11T00:01:17.468Z,92.9
2023-02-11T00:02:16.966Z,92.8
2023-02-11T00:03:16.528Z,92.8
2023-02-11T00:04:17.057Z,92.8
2023-02-11T00:05:16.554Z,93.0
2023-02-11T00:06:17.038Z,93.0
2023-02-11T00:07:16.604Z,92.9
2023-02-11T00:08:17.280Z,92.9
2023-02-11T00:09:16.775Z,93.0
2023-02-11T00:10:17.302Z,93.1
2023-02-11T00:11:16.801Z,92.9
2023-02-11T00:12:17.435Z,93.0
2023-02-11T00:13:17.042Z,93.0
2023-02-11T00:14:16.653Z,93.2
2023-02-11T00:15:17.192Z,93.2
2023-02-11T00:16:16.752Z,93.2
2023-02-11T00:17:17.252Z,93.2
2023-02-11T00:18:16.752Z,93.1
2023-02-11T00:19:17.375Z,93.0
2023-02-11T00:20:16.855Z,92.9
2023-02-11T00:21:17.358Z,93.0
2023-02-11T00:22:17.061Z,93.0
2023-02-11T00:23:16.582Z,93.1
2023-02-11T00:24:17.067Z,93.2
2023-02-11T00:25:16.556Z,93.1
2023-02-11T00:26:17.057Z,93.1
2023-02-11T00:27:16.565Z,93.1
2023-02-11T00:28:17.167Z,93.2
2023-02-11T00:29:16.688Z,93.2
2023-02-11T00:30:17.256Z,93.1
2023-02-11T00:31:17.062Z,93.0
2023-02-11T00:32:16.564Z,92.9
2023-02-11T00:33:17.051Z,92.9
2023-02-11T00:34:16.562Z,92.8
2023-02-11T00:35:17.034Z,92.7
2023-02-11T00:36:16.576Z,92.9
2023-02-11T00:37:17.070Z,93.0
2023-02-11T00:38:16.554Z,92.9
2023-02-11T00:39:17.050Z,93.0
2023-02-11T00:40:16.568Z,93.0
2023-02-11T00:41:17.076Z,93.0
2023-02-11T00:42:16.530Z,93.0
2023-02-11T00:43:17.019Z,93.3
2023-02-11T00:44:16.517Z,93.4
2023-02-11T00:45:16.994Z,93.4
2023-02-11T00:46:16.597Z,93.5
2023-02-11T00:47:17.130Z,93.4
2023-02-11T00:48:16.648Z,93.4
2023-02-11T00:49:17.120Z,93.6
2023-02-11T00:50:16.647Z,93.7
2023-02-11T00:51:17.130Z,93.7
2023-02-11T00:52:17.053Z,93.7
2023-02-11T00:53:16.565Z,93.6
2023-02-11T00:54:17.101Z,93.5
2023-02-11T00:55:16.584Z,93.6
2023-02-11T00:56:17.075Z,93.5
2023-02-11T00:57:16.618Z,93.5
2023-02-11T00:58:17.153Z,93.4
2023-02-11T00:59:16.649Z,93.4
2023-02-11T01:00:17.156Z,93.4
2023-02-11T01:01:16.758Z,93.5
2023-02-11T01:02:17.041Z,93.5
2023-02-11T01:03:16.532Z,93.5
2023-02-11T01:04:17.059Z,93.5
2023-02-11T01:05:16.682Z,93.5
2023-02-11T01:06:17.182Z,93.5
2023-02-11T01:07:16.692Z,93.4
2023-02-11T01:08:17.175Z,93.6
2023-02-11T01:09:16.658Z,93.8
2023-02-11T01:10:17.180Z,93.9
2023-02-11T01:11:16.701Z,93.9
2023-02-11T01:12:17.225Z,93.8
2023-02-11T01:13:16.717Z,93.7
2023-02-11T01:14:17.246Z,93.7
2023-02-11T01:15:16.761Z,93.6
2023-02-11T01:16:17.496Z,93.5
2023-02-11T01:17:17.047Z,93.6
2023-02-11T01:18:16.536Z,93.6
2023-02-11T01:19:17.027Z,93.6
2023-02-11T01:20:16.542Z,93.5
2023-02-11T01:21:17.082Z,93.5
2023-02-11T01:22:17.459Z,93.4
2023-02-11T01:23:16.980Z,93.4
2023-02-11T01:24:16.511Z,93.4
2023-02-11T01:25:17.011Z,93.4
2023-02-11T01:26:16.524Z,93.4
2023-02-11T01:27:17.026Z,93.4
2023-02-11T01:28:16.588Z,93.4
2023-02-11T01:29:17.095Z,93.4
2023-02-11T01:30:16.582Z,93.3
2023-02-11T01:31:17.139Z,93.2
2023-02-11T01:32:16.961Z,93.2
2023-02-11T01:33:17.428Z,93.0
2023-02-11T01:34:16.950Z,92.9
2023-02-11T01:35:17.457Z,92.8
2023-02-11T01:36:16.947Z,92.9
2023-02-11T01:37:17.439Z,92.9
2023-02-11T01:38:17.019Z,92.9
2023-02-11T01:39:16.530Z,93.0
2023-02-11T01:40:17.017Z,92.9
2023-02-11T01:41:16.497Z,92.9
2023-02-11T01:42:17.438Z,92.9
2023-02-11T01:43:16.965Z,93.0
2023-02-11T01:44:16.484Z,93.0
2023-02-11T01:45:16.992Z,93.0
2023-02-11T01:46:16.570Z,93.0
2023-02-11T01:47:17.072Z,93.0
2023-02-11T01:48:16.616Z,93.0
2023-02-11T01:49:17.256Z,93.1
2023-02-11T01:50:16.762Z,93.1
2023-02-11T01:51:17.267Z,93.1
2023-02-11T01:52:17.023Z,93.2
2023-02-11T01:53:16.520Z,93.2
2023-02-11T01:54:17.055Z,93.2
2023-02-11T01:55:16.562Z,93.1
2023-02-11T01:56:17.051Z,93.0
2023-02-11T01:57:16.534Z,93.2
2023-02-11T01:58:17.026Z,93.3
2023-02-11T01:59:16.518Z,93.6
2023-02-11T02:00:17.068Z,93.3
2023-02-11T02:01:16.610Z,93.3
2023-02-11T02:02:16.859Z,93.3
2023-02-11T02:03:17.479Z,93.3
2023-02-11T02:04:17.216Z,93.4
2023-02-11T02:05:16.718Z,93.5
2023-02-11T02:06:17.229Z,93.6
2023-02-11T02:07:16.761Z,93.6
2023-02-11T02:08:17.264Z,93.6
2023-02-11T02:09:16.763Z,93.6
2023-02-11T02:10:17.258Z,93.7
2023-02-11T02:11:16.738Z,93.7
2023-02-11T02:12:16.928Z,93.6
2023-02-11T02:13:17.453Z,93.6
2023-02-11T02:14:16.993Z,93.5
2023-02-11T02:15:16.470Z,93.5
2023-02-11T02:16:17.087Z,93.5
2023-02-11T02:17:16.631Z,93.5
2023-02-11T02:18:17.238Z,93.4
2023-02-11T02:19:16.770Z,93.3
2023-02-11T02:20:17.337Z,93.3
2023-02-11T02:21:16.836Z,93.3
2023-02-11T02:22:17.070Z,93.2
2023-02-11T02:23:16.572Z,93.0
2023-02-11T02:24:17.082Z,93.0
2023-02-11T02:25:16.565Z,93.0
2023-02-11T02:26:17.045Z,93.0
2023-02-11T02:27:16.537Z,93.1
2023-02-11T02:28:17.161Z,93.1
2023-02-11T02:29:16.671Z,93.1
2023-02-11T02:30:17.174Z,93.1
2023-02-11T02:31:16.794Z,93.1
2023-02-11T02:32:17.146Z,93.0
2023-02-11T02:33:23.215Z,93.0
2023-02-11T02:34:16.871Z,93.0
2023-02-11T02:35:17.394Z,92.9
2023-02-11T02:36:16.893Z,93.0
2023-02-11T02:37:17.393Z,93.0
2023-02-11T02:38:16.875Z,93.1
2023-02-11T02:39:17.407Z,92.9
2023-02-11T02:40:16.894Z,93.1
2023-02-11T02:41:17.375Z,93.1
2023-02-11T02:42:16.758Z,93.0
2023-02-11T02:43:17.314Z,93.1
2023-02-11T02:44:16.825Z,93.0
2023-02-11T02:45:17.351Z,92.8
2023-02-11T02:46:16.955Z,92.9
2023-02-11T02:47:16.480Z,92.9
2023-02-11T02:48:16.984Z,92.9
2023-02-11T02:49:16.519Z,92.9
2023-02-11T02:50:17.016Z,92.9
2023-02-11T02:51:16.531Z,92.9
2023-02-11T02:52:16.807Z,93.0
2023-02-11T02:53:17.337Z,93.0
2023-02-11T02:54:16.847Z,93.0
2023-02-11T02:55:17.376Z,93.0
2023-02-11T02:56:16.870Z,93.0
2023-02-11T02:57:17.361Z,93.0
2023-02-11T02:58:16.857Z,93.0
2023-02-11T02:59:17.481Z,92.9
2023-02-11T03:00:17.168Z,93.0
2023-02-11T03:01:16.786Z,93.0
2023-02-11T03:02:17.315Z,93.1
2023-02-11T03:03:16.820Z,93.0
2023-02-11T03:04:17.334Z,92.9
2023-02-11T03:05:16.861Z,92.9
2023-02-11T03:06:17.364Z,92.9
2023-02-11T03:07:16.865Z,92.9
2023-02-11T03:08:17.324Z,92.9
2023-02-11T03:09:16.819Z,92.9
2023-02-11T03:10:17.324Z,92.9
2023-02-11T03:11:16.810Z,92.9
2023-02-11T03:12:17.438Z,92.8
2023-02-11T03:13:16.928Z,92.7
2023-02-11T03:14:17.455Z,92.7
2023-02-11T03:15:16.959Z,92.4
2023-02-11T03:16:17.619Z,92.5
2023-02-11T03:17:17.123Z,92.5
2023-02-11T03:18:16.634Z,92.5
2023-02-11T03:19:17.121Z,92.5
2023-02-11T03:20:16.619Z,92.5
2023-02-11T03:21:17.144Z,92.5
2023-02-11T03:22:16.483Z,92.5
2023-02-11T03:23:16.964Z,92.8
2023-02-11T03:24:17.480Z,92.9
2023-02-11T03:25:16.979Z,93.0
2023-02-11T03:26:16.477Z,93.2
2023-02-11T03:27:16.992Z,93.1
2023-02-11T03:28:16.543Z,93.0
2023-02-11T03:29:17.044Z,92.9
2023-02-11T03:30:16.550Z,92.8
2023-02-11T03:31:17.334Z,92.4
2023-02-11T03:32:17.070Z,92.4
2023-02-11T03:33:16.664Z,92.4
2023-02-11T03:34:17.205Z,92.3
2023-02-11T03:35:16.725Z,92.2
2023-02-11T03:36:17.223Z,92.2
2023-02-11T03:37:16.705Z,92.3
2023-02-11T03:38:17.188Z,92.3
2023-02-11T03:39:16.707Z,92.3
2023-02-11T03:40:17.409Z,92.4
2023-02-11T03:41:16.947Z,92.5
2023-02-11T03:42:16.859Z,92.5
2023-02-11T03:43:17.360Z,92.5
2023-02-11T03:44:16.859Z,92.5
2023-02-11T03:45:17.394Z,92.3
2023-02-11T03:46:17.192Z,92.4
2023-02-11T03:47:16.732Z,92.3
2023-02-11T03:48:17.233Z,92.3
2023-02-11T03:49:16.740Z,92.3
2023-02-11T03:50:17.241Z,92.3
2023-02-11T03:51:16.728Z,92.2
2023-02-11T03:52:17.340Z,92.3
2023-02-11T03:53:16.892Z,92.2
2023-02-11T03:54:17.431Z,92.2
2023-02-11T03:55:16.922Z,91.9
2023-02-11T03:56:17.433Z,92.0
2023-02-11T03:57:16.924Z,92.0
2023-02-11T03:58:17.518Z,92.1
2023-02-11T03:59:17.020Z,92.1
2023-02-11T04:00:16.544Z,92.1
2023-02-11T04:01:17.232Z,92.1
2023-02-11T04:02:16.866Z,92.0
2023-02-11T04:03:17.575Z,92.1
2023-02-11T04:04:17.144Z,92.1
2023-02-11T04:05:16.657Z,92.1
2023-02-11T04:06:17.154Z,92.1
2023-02-11T04:07:16.644Z,92.0
2023-02-11T04:08:17.128Z,92.1
2023-02-11T04:09:16.630Z,92.1
2023-02-11T04:10:17.133Z,92.2
2023-02-11T04:11:16.674Z,92.2
2023-02-11T04:12:17.079Z,92.1
2023-02-11T04:13:16.582Z,92.2
2023-02-11T04:14:17.102Z,92.2
2023-02-11T04:15:16.624Z,92.2
2023-02-11T04:16:17.255Z,92.2
2023-02-11T04:17:16.814Z,92.3
2023-02-11T04:18:17.308Z,92.4
2023-02-11T04:19:16.819Z,92.5
2023-02-11T04:20:17.341Z,92.6
2023-02-11T04:21:16.891Z,92.6
2023-02-11T04:22:16.638Z,92.6
2023-02-11T04:23:17.117Z,92.6
2023-02-11T04:24:16.626Z,92.6
2023-02-11T04:25:17.158Z,92.6
2023-02-11T04:26:16.670Z,92.4
2023-02-11T04:27:17.195Z,92.4
2023-02-11T04:28:16.786Z,92.4
2023-02-11T04:29:17.324Z,92.4
2023-02-11T04:30:16.844Z,92.4
2023-02-11T04:31:17.711Z,92.4
2023-02-11T04:32:16.910Z,92.4
2023-02-11T04:33:17.398Z,92.3
2023-02-11T04:34:16.875Z,92.2
2023-02-11T04:35:17.372Z,92.3
2023-02-11T04:36:16.867Z,92.1
2023-02-11T04:37:17.353Z,92.1
2023-02-11T04:38:16.837Z,92.1
2023-02-11T04:39:17.467Z,92.1
2023-02-11T04:40:16.967Z,92.4
2023-02-11T04:41:16.473Z,92.4
2023-02-11T04:42:17.151Z,92.4
2023-02-11T04:43:16.660Z,92.4
2023-02-11T04:44:17.158Z,92.4
2023-02-11T04:45:16.648Z,92.4
2023-02-11T04:46:17.306Z,92.5
2023-02-11T04:47:16.833Z,92.5
2023-02-11T04:48:17.337Z,92.5
2023-02-11T04:49:16.893Z,92.5
2023-02-11T04:50:17.441Z,92.5
2023-02-11T04:51:16.930Z,92.5
2023-02-11T04:52:16.538Z,92.5
2023-02-11T04:53:17.074Z,92.6
2023-02-11T04:54:16.586Z,92.6
2023-02-11T04:55:17.127Z,92.6
2023-02-11T04:56:16.640Z,92.6
2023-02-11T04:57:17.195Z,92.6
2023-02-11T04:58:16.679Z,92.5
2023-02-11T04:59:17.180Z,92.5
2023-02-11T05:00:16.682Z,92.5
2023-02-11T05:01:17.268Z,92.5
2023-02-11T05:02:16.489Z,92.5
2023-02-11T05:03:16.994Z,92.5
2023-02-11T05:04:16.569Z,92.5
2023-02-11T05:05:17.111Z,92.5
2023-02-11T05:06:16.598Z,92.5
2023-02-11T05:07:17.153Z,92.5
2023-02-11T05:08:16.661Z,92.5
2023-02-11T05:09:17.168Z,92.5
2023-02-11T05:10:16.692Z,92.5
2023-02-11T05:11:17.181Z,92.5
2023-02-11T05:12:16.559Z,92.5
2023-02-11T05:13:17.135Z,92.6
2023-02-11T05:14:16.625Z,92.6
2023-02-11T05:15:17.141Z,92.6
2023-02-11T05:16:16.711Z,92.6
2023-02-11T05:17:17.210Z,92.7
2023-02-11T05:18:16.702Z,92.7
2023-02-11T05:19:17.186Z,92.6
2023-02-11T05:20:16.709Z,92.7
2023-02-11T05:21:17.230Z,92.8
2023-02-11T05:22:17.366Z,92.7
2023-02-11T05:23:16.901Z,92.8
2023-02-11T05:24:17.406Z,92.7
2023-02-11T05:25:16.935Z,92.8
2023-02-11T05:26:16.491Z,92.7
2023-02-11T05:27:17.045Z,92.7
2023-02-11T05:28:16.597Z,92.7
2023-02-11T05:29:17.160Z,92.8
2023-02-11T05:30:16.668Z,92.8
2023-02-11T05:31:17.285Z,92.7
2023-02-11T05:32:16.624Z,92.7
2023-02-11T05:33:17.126Z,92.7
2023-02-11T05:34:16.653Z,92.5
2023-02-11T05:35:17.136Z,92.6
2023-02-11T05:36:16.642Z,92.7
2023-02-11T05:37:17.259Z,92.6
2023-02-11T05:38:16.772Z,92.7
2023-02-11T05:39:17.251Z,92.6
2023-02-11T05:40:16.794Z,92.6
2023-02-11T05:41:17.299Z,92.6
2023-02-11T05:42:16.896Z,92.6
2023-02-11T05:43:17.427Z,92.6
2023-02-11T05:44:16.951Z,92.6
2023-02-11T05:45:17.459Z,92.8
2023-02-11T05:46:17.037Z,93.0
2023-02-11T05:47:16.540Z,93.1
2023-02-11T05:48:17.246Z,93.1
2023-02-11T05:49:16.915Z,93.0
2023-02-11T05:50:17.413Z,92.9
2023-02-11T05:51:16.934Z,92.9
2023-02-11T05:52:17.050Z,92.8
2023-02-11T05:53:16.715Z,92.8
2023-02-11T05:54:16.482Z,92.8
2023-02-11T05:55:16.994Z,92.8
2023-02-11T05:56:16.496Z,92.8
2023-02-11T05:57:16.988Z,92.8
2023-02-11T05:58:16.500Z,92.7
2023-02-11T05:59:16.993Z,92.5
2023-02-11T06:00:16.486Z,92.4
2023-02-11T06:01:16.988Z,92.2
2023-02-11T06:02:16.617Z,92.1
2023-02-11T06:03:17.212Z,92.1
2023-02-11T06:04:16.726Z,92.0
2023-02-11T06:05:17.226Z,92.2
2023-02-11T06:06:16.751Z,92.2
2023-02-11T06:07:17.231Z,92.1
2023-02-11T06:08:16.720Z,92.1
2023-02-11T06:09:17.260Z,92.2
2023-02-11T06:10:16.756Z,92.1
2023-02-11T06:11:17.252Z,92.1
2023-02-11T06:12:17.063Z,92.1
2023-02-11T06:13:16.565Z,92.1
2023-02-11T06:14:17.034Z,92.2
2023-02-11T06:15:16.542Z,92.3
2023-02-11T06:16:17.161Z,92.4
2023-02-11T06:17:16.667Z,92.5
2023-02-11T06:18:17.158Z,92.5
2023-02-11T06:19:16.658Z,92.5
2023-02-11T06:20:17.217Z,92.6
2023-02-11T06:21:16.704Z,92.7
2023-02-11T06:22:16.973Z,92.8
2023-02-11T06:23:16.482Z,92.8
2023-02-11T06:24:51.253Z,92.9
2023-02-11T06:25:17.343Z,92.9
2023-02-11T06:26:16.829Z,92.9
2023-02-11T06:27:17.337Z,92.9
2023-02-11T06:28:16.953Z,92.9
2023-02-11T06:29:16.490Z,93.0
2023-02-11T06:30:16.996Z,93.0
2023-02-11T06:31:16.844Z,93.1
2023-02-11T06:32:43.161Z,93.1
2023-02-11T06:33:16.549Z,93.1
2023-02-11T06:34:17.042Z,93.0
2023-02-11T06:35:16.550Z,93.0
2023-02-11T06:36:17.037Z,93.1
2023-02-11T06:37:16.518Z,93.1
2023-02-11T06:38:17.027Z,93.2
2023-02-11T06:39:16.537Z,93.3
2023-02-11T06:40:17.081Z,93.3
2023-02-11T06:41:16.700Z,93.3
2023-02-11T06:42:17.258Z,93.4
2023-02-11T06:43:16.741Z,93.4
2023-02-11T06:44:17.226Z,93.5
2023-02-11T06:45:16.710Z,93.6
2023-02-11T06:46:17.348Z,93.7
2023-02-11T06:47:16.863Z,93.7
2023-02-11T06:48:17.369Z,93.5
2023-02-11T06:49:16.854Z,93.8
2023-02-11T06:50:17.360Z,93.8
2023-02-11T06:51:16.871Z,93.8
2023-02-11T06:52:16.991Z,93.8
2023-02-11T06:53:16.489Z,93.6
2023-02-11T06:54:16.960Z,93.6
2023-02-11T06:55:17.451Z,93.6
2023-02-11T06:56:16.947Z,93.7
2023-02-11T06:57:17.439Z,93.8
2023-02-11T06:58:16.941Z,93.9
2023-02-11T06:59:17.454Z,94.0
2023-02-11T07:00:17.005Z,94.1
2023-02-11T07:01:16.504Z,94.2
2023-02-11T07:02:21.068Z,94.2
2023-02-11T07:03:16.911Z,94.2
2023-02-11T07:04:17.455Z,94.2
2023-02-11T07:05:16.974Z,94.2
2023-02-11T07:06:16.498Z,94.2
2023-02-11T07:07:16.983Z,94.1
2023-02-11T07:08:16.489Z,94.1
2023-02-11T07:09:17.001Z,94.2
2023-02-11T07:10:16.525Z,94.1
2023-02-11T07:11:17.026Z,94.1
2023-02-11T07:12:16.846Z,94.1
2023-02-11T07:13:17.362Z,94.1
2023-02-11T07:14:16.910Z,94.2
2023-02-11T07:15:17.433Z,94.2
2023-02-11T07:16:17.110Z,94.2
2023-02-11T07:17:16.668Z,94.2
2023-02-11T07:18:17.197Z,94.2
2023-02-11T07:19:16.719Z,94.1
2023-02-11T07:20:17.200Z,94.0
2023-02-11T07:21:16.679Z,94.0
2023-02-11T07:22:17.226Z,93.8
2023-02-11T07:23:16.734Z,93.7
2023-02-11T07:24:17.228Z,93.6
2023-02-11T07:25:16.733Z,93.5
2023-02-11T07:26:17.220Z,93.4
2023-02-11T07:27:16.748Z,93.4
2023-02-11T07:28:17.508Z,93.4
2023-02-11T07:29:17.024Z,93.3
2023-02-11T07:30:16.527Z,93.3
2023-02-11T07:31:17.274Z,93.2
2023-02-11T07:32:16.705Z,93.2
2023-02-11T07:33:17.253Z,93.1
2023-02-11T07:34:16.801Z,93.0
2023-02-11T07:35:17.287Z,93.0
2023-02-11T07:36:16.781Z,93.0
2023-02-11T07:37:17.296Z,92.9
2023-02-11T07:38:16.801Z,92.7
2023-02-11T07:39:17.338Z,92.4
2023-02-11T07:40:16.868Z,92.6
2023-02-11T07:41:17.347Z,92.6
2023-02-11T07:42:17.005Z,92.5
2023-02-11T07:43:16.488Z,92.4
2023-02-11T07:44:16.984Z,92.4
2023-02-11T07:45:16.481Z,92.3
2023-02-11T07:46:17.050Z,92.3
2023-02-11T07:47:16.558Z,92.2
2023-02-11T07:48:17.052Z,92.1
2023-02-11T07:49:16.589Z,92.1
2023-02-11T07:50:17.081Z,91.9
2023-02-11T07:51:16.593Z,91.9
2023-02-11T07:52:17.093Z,91.5
2023-02-11T07:53:16.607Z,91.2
2023-02-11T07:54:17.123Z,91.2
2023-02-11T07:55:16.632Z,91.4
2023-02-11T07:56:17.134Z,91.2
2023-02-11T07:57:16.654Z,91.0
2023-02-11T07:58:17.186Z,91.1
2023-02-11T07:59:16.670Z,91.5
2023-02-11T08:00:21.234Z,91.5
2023-02-11T08:01:17.144Z,91.7
2023-02-11T08:02:16.806Z,91.4
2023-02-11T08:03:17.276Z,91.2
2023-02-11T08:04:16.777Z,91.1
2023-02-11T08:05:17.278Z,91.1
2023-02-11T08:06:16.776Z,91.1
2023-02-11T08:07:17.289Z,91.2
2023-02-11T08:08:16.773Z,91.2
2023-02-11T08:09:17.255Z,91.3
2023-02-11T08:10:16.756Z,91.4
2023-02-11T08:11:17.299Z,91.4
2023-02-11T08:12:16.804Z,91.4
2023-02-11T08:13:17.299Z,91.4
2023-02-11T08:14:16.795Z,91.4
2023-02-11T08:15:17.304Z,91.4
2023-02-11T08:16:16.980Z,91.4
2023-02-11T08:17:16.500Z,91.4
2023-02-11T08:18:17.011Z,91.4
2023-02-11T08:19:16.507Z,91.4
2023-02-11T08:20:17.013Z,91.4
2023-02-11T08:21:16.505Z,91.2
2023-02-11T08:22:16.946Z,91.2
2023-02-11T08:23:17.421Z,91.1
2023-02-11T08:24:16.927Z,91.2
2023-02-11T08:25:17.436Z,91.2
2023-02-11T08:26:17.043Z,90.9
2023-02-11T08:27:16.548Z,91.0
2023-02-11T08:28:17.143Z,91.0
2023-02-11T08:29:16.699Z,91.1
2023-02-11T08:30:17.193Z,91.3
2023-02-11T08:31:16.914Z,91.3
2023-02-11T08:32:17.345Z,91.3
2023-02-11T08:33:16.853Z,91.3
2023-02-11T08:34:17.380Z,91.1
2023-02-11T08:35:16.918Z,91.1
2023-02-11T08:36:17.405Z,90.6
2023-02-11T08:37:16.875Z,90.6
2023-02-11T08:38:17.368Z,90.7
2023-02-11T08:39:20.720Z,90.8
2023-02-11T08:40:17.343Z,90.9
2023-02-11T08:41:16.861Z,91.0
2023-02-11T08:42:17.207Z,91.0
2023-02-11T08:43:16.737Z,91.1
2023-02-11T08:44:17.335Z,91.2
2023-02-11T08:45:16.864Z,91.2
2023-02-11T08:46:17.718Z,91.0
2023-02-11T08:47:17.296Z,90.8
2023-02-11T08:48:16.772Z,90.4
2023-02-11T08:49:17.369Z,90.7
2023-02-11T08:50:16.869Z,90.4
2023-02-11T08:51:17.359Z,90.7
2023-02-11T08:52:16.965Z,90.7
2023-02-11T08:53:16.482Z,90.6
2023-02-11T08:54:17.037Z,90.6
2023-02-11T08:55:16.571Z,90.6
2023-02-11T08:56:17.077Z,90.1
2023-02-11T08:57:16.638Z,89.5
2023-02-11T08:58:19.353Z,89.4
2023-02-11T08:59:16.895Z,89.3
2023-02-11T09:00:17.388Z,89.5
2023-02-11T09:01:17.068Z,89.7
2023-02-11T09:02:16.629Z,89.7
2023-02-11T09:03:17.134Z,89.7
2023-02-11T09:04:16.653Z,89.6
2023-02-11T09:05:17.173Z,89.6
2023-02-11T09:06:16.708Z,89.6
2023-02-11T09:07:17.191Z,89.6
2023-02-11T09:08:16.733Z,89.4
2023-02-11T09:09:17.268Z,89.3
2023-02-11T09:10:16.749Z,88.8
2023-02-11T09:11:17.271Z,88.1
2023-02-11T09:12:16.718Z,88.1
2023-02-11T09:13:17.210Z,87.5
2023-02-11T09:14:16.753Z,88.3
2023-02-11T09:15:17.296Z,88.5
2023-02-11T09:16:16.834Z,88.2
2023-02-11T09:17:17.372Z,88.4
2023-02-11T09:18:16.915Z,88.6
2023-02-11T09:19:17.462Z,88.4
2023-02-11T09:20:16.955Z,87.5
2023-02-11T09:21:17.453Z,87.4
2023-02-11T09:22:16.557Z,86.6
2023-02-11T09:23:18.777Z,86.4
2023-02-11T09:24:17.272Z,86.5
2023-02-11T09:25:16.767Z,86.0
2023-02-11T09:26:17.311Z,86.1
2023-02-11T09:27:16.798Z,86.3
2023-02-11T09:28:17.359Z,86.1
2023-02-11T09:29:16.844Z,86.3
2023-02-11T09:30:17.347Z,86.0
2023-02-11T09:31:17.056Z,85.3
2023-02-11T09:32:16.864Z,85.2
2023-02-11T09:33:17.395Z,85.5
2023-02-11T09:34:16.948Z,85.0
2023-02-11T09:35:17.474Z,83.9
2023-02-11T09:36:16.961Z,84.1
2023-02-11T09:37:17.560Z,84.5
2023-02-11T09:38:17.059Z,83.7
2023-02-11T09:39:16.570Z,84.0
2023-02-11T09:40:17.091Z,83.8
2023-02-11T09:41:16.598Z,83.9
2023-02-11T09:42:16.833Z,84.2
2023-02-11T09:43:17.334Z,83.8
2023-02-11T09:44:16.828Z,84.0
2023-02-11T09:45:17.374Z,84.2
2023-02-11T09:46:17.066Z,84.3
2023-02-11T09:47:16.553Z,84.2
2023-02-11T09:48:17.063Z,83.0
2023-02-11T09:49:16.575Z,83.2
2023-02-11T09:50:17.066Z,83.4
2023-02-11T09:51:16.555Z,83.6
2023-02-11T09:52:17.019Z,83.0
2023-02-11T09:53:16.533Z,83.7
2023-02-11T09:54:17.049Z,83.6
2023-02-11T09:55:16.545Z,83.6
2023-02-11T09:56:17.045Z,83.7
2023-02-11T09:57:29.333Z,83.1
2023-02-11T09:58:16.853Z,83.8
2023-02-11T09:59:17.371Z,83.9
2023-02-11T10:00:16.901Z,83.3
2023-02-11T10:01:21.029Z,83.3
2023-02-11T10:02:17.008Z,83.5
2023-02-11T10:03:16.519Z,83.5
2023-02-11T10:04:17.182Z,83.6
2023-02-11T10:05:16.710Z,83.6
2023-02-11T10:06:17.213Z,83.3
2023-02-11T10:07:16.698Z,83.5
2023-02-11T10:08:17.366Z,83.2
2023-02-11T10:09:16.862Z,83.0
2023-02-11T10:10:17.333Z,83.5
2023-02-11T10:11:31.800Z,83.5
2023-02-11T10:12:16.729Z,83.3
2023-02-11T10:13:17.259Z,83.1
2023-02-11T10:14:16.775Z,83.0
2023-02-11T10:15:17.258Z,83.6
2023-02-11T10:16:16.967Z,83.7
2023-02-11T10:17:16.498Z,83.7
2023-02-11T10:18:17.023Z,83.5
2023-02-11T10:19:16.539Z,83.2
2023-02-11T10:20:17.414Z,82.7
2023-02-11T10:21:16.927Z,82.9
2023-02-11T10:22:17.045Z,82.7
2023-02-11T10:23:16.561Z,82.9
2023-02-11T10:24:17.072Z,82.2
2023-02-11T10:25:16.587Z,82.5
2023-02-11T10:26:17.109Z,82.5
2023-02-11T10:27:16.594Z,81.3
2023-02-11T10:28:17.388Z,81.7
2023-02-11T10:29:16.893Z,82.2
2023-02-11T10:30:17.397Z,82.2
2023-02-11T10:31:17.179Z,82.0
2023-02-11T10:32:16.594Z,81.9
2023-02-11T10:33:17.133Z,81.7
2023-02-11T10:34:16.640Z,81.2
2023-02-11T10:35:17.183Z,81.2
2023-02-11T10:36:16.660Z,81.8
2023-02-11T10:37:17.195Z,81.6
2023-02-11T10:38:16.696Z,81.4
2023-02-11T10:39:17.180Z,81.4
2023-02-11T10:40:16.669Z,81.5
2023-02-11T10:41:17.147Z,81.8
2023-02-11T10:42:16.772Z,81.5
2023-02-11T10:43:17.305Z,80.6
2023-02-11T10:44:16.797Z,80.8
2023-02-11T10:45:17.295Z,80.5
2023-02-11T10:46:16.889Z,81.1
2023-02-11T10:47:17.425Z,81.4
2023-02-11T10:48:16.940Z,80.6
2023-02-11T10:49:17.491Z,81.2
2023-02-11T10:50:16.971Z,80.9
2023-02-11T10:51:16.454Z,81.0
2023-02-11T10:52:16.987Z,80.6
2023-02-11T10:53:16.504Z,80.1
2023-02-11T10:54:17.014Z,80.8
2023-02-11T10:55:16.506Z,81.1
2023-02-11T10:56:17.009Z,80.3
2023-02-11T10:57:16.481Z,81.0
2023-02-11T10:58:16.987Z,80.6
2023-02-11T10:59:16.485Z,80.8
2023-02-11T11:00:17.098Z,81.1
2023-02-11T11:01:25.143Z,81.3
2023-02-11T11:02:16.999Z,81.3
2023-02-11T11:03:16.512Z,81.4
2023-02-11T11:04:17.079Z,81.4
2023-02-11T11:05:16.628Z,81.4
2023-02-11T11:06:17.158Z,81.8
2023-02-11T11:07:16.661Z,81.1
2023-02-11T11:08:17.144Z,81.4
2023-02-11T11:09:16.606Z,81.2
2023-02-11T11:10:17.241Z,81.4
2023-02-11T11:11:16.750Z,81.3
2023-02-11T11:12:17.467Z,81.4
2023-02-11T11:13:16.962Z,81.7
2023-02-11T11:14:17.481Z,81.5
2023-02-11T11:15:17.030Z,81.6
2023-02-11T11:16:16.655Z,81.2
2023-02-11T11:17:17.207Z,81.2
2023-02-11T11:18:22.980Z,81.5
2023-02-11T11:19:16.780Z,81.1
2023-02-11T11:20:17.375Z,81.2
2023-02-11T11:21:16.946Z,81.4
2023-02-11T11:22:17.199Z,81.3
2023-02-11T11:23:16.756Z,81.2
2023-02-11T11:24:17.283Z,81.0
2023-02-11T11:25:16.890Z,81.1
2023-02-11T11:26:17.375Z,81.2
2023-02-11T11:27:16.864Z,80.7
2023-02-11T11:28:17.435Z,81.1
2023-02-11T11:29:16.961Z,81.3
2023-02-11T11:30:17.536Z,81.2
2023-02-11T11:31:17.297Z,81.0
2023-02-11T11:32:20.707Z,80.8
2023-02-11T11:33:17.299Z,81.1
2023-02-11T11:34:16.786Z,81.3
2023-02-11T11:35:17.262Z,81.3
2023-02-11T11:36:16.790Z,81.4
2023-02-11T11:37:17.300Z,81.5
2023-02-11T11:38:16.774Z,81.3
2023-02-11T11:39:17.320Z,81.6
2023-02-11T11:40:17.023Z,82.0
2023-02-11T11:41:16.549Z,82.1
2023-02-11T11:42:16.918Z,82.1
2023-02-11T11:43:17.428Z,81.8
2023-02-11T11:44:16.934Z,81.9
2023-02-11T11:45:17.439Z,82.1
2023-02-11T11:46:17.050Z,82.1
2023-02-11T11:47:16.590Z,82.1
2023-02-11T11:48:17.090Z,82.2
2023-02-11T11:49:16.603Z,81.7
2023-02-11T11:50:21.083Z,81.7
2023-02-11T11:51:16.699Z,82.0
2023-02-11T11:52:17.433Z,82.0
2023-02-11T11:53:16.918Z,81.9
2023-02-11T11:54:17.596Z,81.9
2023-02-11T11:55:17.121Z,81.9
2023-02-11T11:56:16.640Z,82.1
2023-02-11T11:57:17.169Z,81.9
2023-02-11T11:58:16.690Z,81.8
2023-02-11T11:59:17.259Z,81.2
2023-02-11T12:00:16.804Z,80.9
2023-02-11T12:01:17.300Z,80.9
2023-02-11T12:02:17.141Z,81.1
2023-02-11T12:03:16.776Z,81.1
2023-02-11T12:04:17.262Z,80.6
2023-02-11T12:05:16.758Z,80.7
2023-02-11T12:06:17.250Z,80.8
2023-02-11T12:07:16.757Z,80.4
2023-02-11T12:08:17.285Z,80.1
2023-02-11T12:09:16.833Z,80.6
2023-02-11T12:10:17.352Z,80.6
2023-02-11T12:11:16.882Z,80.5
2023-02-11T12:12:17.383Z,79.9
2023-02-11T12:13:16.907Z,80.0
2023-02-11T12:14:17.431Z,80.4
2023-02-11T12:15:16.942Z,80.3
2023-02-11T12:16:17.548Z,80.6
2023-02-11T12:17:17.088Z,80.6
2023-02-11T12:18:16.618Z,80.9
2023-02-11T12:19:17.109Z,80.8
2023-02-11T12:20:16.621Z,80.9
2023-02-11T12:21:17.114Z,80.9
2023-02-11T12:22:16.714Z,80.5
2023-02-11T12:23:17.210Z,80.9
2023-02-11T12:24:17.766Z,81.2
2023-02-11T12:25:17.295Z,81.2
2023-02-11T12:26:16.774Z,81.4
2023-02-11T12:27:17.308Z,81.2
2023-02-11T12:28:16.941Z,81.4
2023-02-11T12:29:17.526Z,81.4
2023-02-11T12:30:17.084Z,81.7
2023-02-11T12:31:16.885Z,81.9
2023-02-11T12:32:17.234Z,81.8
2023-02-11T12:33:16.734Z,81.6
2023-02-11T12:34:17.211Z,82.0
2023-02-11T12:35:16.711Z,82.0
2023-02-11T12:36:17.220Z,82.1
2023-02-11T12:37:16.708Z,82.2
2023-02-11T12:38:17.280Z,82.1
2023-02-11T12:39:17.062Z,82.2
2023-02-11T12:40:16.668Z,82.2
2023-02-11T12:41:17.175Z,82.2
2023-02-11T12:42:16.994Z,82.0
2023-02-11T12:43:16.647Z,81.8
2023-02-11T12:44:17.213Z,82.0
2023-02-11T12:45:16.709Z,81.9
2023-02-11T12:46:17.475Z,81.8
2023-02-11T12:47:17.047Z,81.8
2023-02-11T12:48:16.558Z,81.9
2023-02-11T12:49:17.078Z,81.8
2023-02-11T12:50:16.586Z,81.9
2023-02-11T12:51:17.090Z,82.0
2023-02-11T12:52:16.497Z,81.8
2023-02-11T12:53:17.005Z,81.7
2023-02-11T12:54:16.516Z,81.5
2023-02-11T12:55:17.073Z,81.5
2023-02-11T12:56:16.572Z,81.8
2023-02-11T12:57:17.070Z,81.9
2023-02-11T12:58:16.562Z,81.8
2023-02-11T12:59:17.062Z,81.9
2023-02-11T13:00:16.595Z,81.8
2023-02-11T13:01:17.251Z,81.7
2023-02-11T13:02:17.016Z,81.7
2023-02-11T13:03:16.541Z,81.5
2023-02-11T13:04:17.058Z,81.3
2023-02-11T13:05:16.600Z,81.4
2023-02-11T13:06:17.085Z,81.2
2023-02-11T13:07:16.589Z,81.4
2023-02-11T13:08:17.082Z,81.7
2023-02-11T13:09:16.620Z,81.8
2023-02-11T13:10:17.115Z,81.9
2023-02-11T13:11:16.614Z,81.8
2023-02-11T13:12:17.111Z,81.7
2023-02-11T13:13:16.568Z,81.6
2023-02-11T13:14:17.077Z,81.7
2023-02-11T13:15:16.610Z,81.8
2023-02-11T13:16:17.211Z,81.9
2023-02-11T13:17:16.701Z,81.7
2023-02-11T13:18:19.372Z,81.5